M I D A S
Marine Information and Data Acquisition System
Tripno 2281 of the Zeeleeuw from 2012-03-27 06:35:23 to 2012-03-27 13:54:23
Back to CruiseResearch ActivitiesStationsMapUnderway DataData graphs

EquipmentUnitsComment
TimeDGPSUTC
LatitudeDGPSDM.mWGS84
LongitudeDGPSDM.mWGS84
HeadingGyrodeg 
SOGDGPSknotsSpeed over ground
COGDGPSdegCourse over ground
DepthEcho soundermeters200 kHz
Missing or incorrect values are displayed as -999
Navigation data collected by the RV Zeeleeuw from 2012-03-27 06:24:12 to 2012-03-27 14:08:26
Time Latitude Longitude Heading SOG COG Depth
2012-03-27 06:25:16 51°13.635 2°56.018 125.7 0.1 226 -999
2012-03-27 06:26:17 51°13.635 2°56.017 125.7 0.1 50 -999
2012-03-27 06:27:17 51°13.636 2°56.017 125.7 -999 15 -999
2012-03-27 06:28:16 51°13.636 2°56.017 125.7 0.1 18 -999
2012-03-27 06:29:16 51°13.636 2°56.018 126.2 -999 269 -999
2012-03-27 06:30:17 51°13.637 2°56.018 125.6 0.1 13 -999
2012-03-27 06:31:15 51°13.634 2°56.019 125.6 -999 178 -999
2012-03-27 06:32:16 51°13.635 2°56.019 126.7 0.1 10 -999
2012-03-27 06:33:17 51°13.636 2°56.018 127.4 0.1 312 -999
2012-03-27 06:34:16 51°13.635 2°56.019 127.8 -999 43 -999
2012-03-27 06:35:16 51°13.635 2°56.019 128.2 0.1 152 -999
2012-03-27 06:36:16 51°13.635 2°56.019 129.6 0.1 38 8.1
2012-03-27 06:37:16 51°13.635 2°56.019 119.7 0.1 194 -999
2012-03-27 06:38:16 51°13.634 2°56.019 111.1 0.1 209 8.1
2012-03-27 06:39:16 51°13.641 2°55.985 108.2 2.9 289 -999
2012-03-27 06:40:16 51°13.662 2°55.893 116.3 4.4 295 -999
2012-03-27 06:41:16 51°13.707 2°55.786 133.7 5.1 313 -999
2012-03-27 06:42:16 51°13.771 2°55.69 143.1 5.3 320 -999
2012-03-27 06:43:16 51°13.849 2°55.625 168.7 5.4 346 -999
2012-03-27 06:44:16 51°13.933 2°55.627 200.1 4.4 15 -999
2012-03-27 06:45:16 51°13.977 2°55.66 228.6 1.3 33 10.5
2012-03-27 06:46:16 51°13.984 2°55.636 289.4 2.3 296 -999
2012-03-27 06:47:16 51°14.032 2°55.54 314.2 6.5 315 -999
2012-03-27 06:48:16 51°14.139 2°55.42 330.3 8.9 329 -999
2012-03-27 06:49:16 51°14.274 2°55.284 329.2 10 327 -999
2012-03-27 06:50:16 51°14.421 2°55.143 333.4 10.7 330 -999
2012-03-27 06:51:15 51°14.568 2°54.983 323.3 11.3 313 11.8
2012-03-27 06:52:13 51°14.708 2°54.774 326.4 12.4 320 11.2
2012-03-27 06:53:13 51°14.877 2°54.586 336.7 12.3 332 11.6
2012-03-27 06:54:13 51°15.054 2°54.419 331.8 12.3 328 11.3
2012-03-27 06:55:13 51°15.242 2°54.302 350.7 12 344 9.7
2012-03-27 06:56:13 51°15.438 2°54.247 1.6 11.9 356 9.6
2012-03-27 06:57:13 51°15.636 2°54.214 356 12 348 10.1
2012-03-27 06:58:13 51°15.832 2°54.154 358.3 12 354 10.4
2012-03-27 06:59:13 51°16.025 2°54.17 19.5 11 14 10.7
2012-03-27 07:00:13 51°16.159 2°54.222 18.5 6.6 10 11
2012-03-27 07:01:13 51°16.248 2°54.243 19.7 4.4 8 11.2
2012-03-27 07:02:13 51°16.303 2°54.278 51.5 2.6 44 11.2
2012-03-27 07:03:13 51°16.313 2°54.301 82.8 0.2 255 11.2
2012-03-27 07:04:13 51°16.307 2°54.289 104.5 0.7 232 11.2
2012-03-27 07:05:13 51°16.3 2°54.274 122.2 0.8 233 11.2
2012-03-27 07:06:13 51°16.291 2°54.255 137.8 1 235 11.2
2012-03-27 07:07:13 51°16.282 2°54.234 149.6 1 236 11.2
2012-03-27 07:08:13 51°16.272 2°54.212 156.9 1.1 236 11.1
2012-03-27 07:09:13 51°16.263 2°54.188 161.1 1.1 237 11.1
2012-03-27 07:10:13 51°16.254 2°54.164 162.5 1.2 237 11.2
2012-03-27 07:11:13 51°16.245 2°54.141 161.7 1.1 239 11.2
2012-03-27 07:12:13 51°16.235 2°54.116 160.7 1.1 239 11.1
2012-03-27 07:13:13 51°16.226 2°54.092 160.3 1.1 239 11.1
2012-03-27 07:14:13 51°16.217 2°54.067 159.8 1.1 238 11.1
2012-03-27 07:15:13 51°16.208 2°54.043 160.3 1.2 240 11
2012-03-27 07:16:13 51°16.198 2°54.018 161.8 1.1 239 11
2012-03-27 07:17:13 51°16.183 2°53.999 149.6 1.7 177 11
2012-03-27 07:18:13 51°16.168 2°54.039 81 2.1 78 11
2012-03-27 07:19:13 51°16.236 2°54.139 43.6 7.7 38 10.9
2012-03-27 07:20:13 51°16.337 2°54.291 55 8.5 53 11.1
2012-03-27 07:21:13 51°16.357 2°54.421 98.8 2.8 108 11.2
2012-03-27 07:22:13 51°16.341 2°54.431 142.3 1 217 11.3
2012-03-27 07:23:13 51°16.328 2°54.41 167.7 1.2 231 11
2012-03-27 07:24:13 51°16.314 2°54.381 180.7 1.4 233 11
2012-03-27 07:25:13 51°16.301 2°54.351 183.6 1.4 234 11
2012-03-27 07:26:13 51°16.287 2°54.32 181.5 1.4 235 11
2012-03-27 07:27:13 51°16.273 2°54.289 179.3 1.4 234 11.2
2012-03-27 07:28:13 51°16.26 2°54.259 177.8 1.4 237 11
2012-03-27 07:29:13 51°16.248 2°54.228 177.6 1.5 240 10.9
2012-03-27 07:30:13 51°16.236 2°54.197 177.7 1.5 241 10.8
2012-03-27 07:31:13 51°16.224 2°54.165 177.1 1.4 238 10.8
2012-03-27 07:32:13 51°16.213 2°54.135 176.9 1.3 239 10.8
2012-03-27 07:33:13 51°16.202 2°54.102 177.7 1.4 242 10.7
2012-03-27 07:34:13 51°16.191 2°54.07 178.1 1.3 240 10.7
2012-03-27 07:35:13 51°16.18 2°54.036 178.2 1.4 244 10.8
2012-03-27 07:36:13 51°16.169 2°54.002 179.1 1.5 245 10.8
2012-03-27 07:37:13 51°16.158 2°53.969 180.1 1.3 241 10.7
2012-03-27 07:38:13 51°16.147 2°53.935 181 1.4 240 10.7
2012-03-27 07:39:13 51°16.136 2°53.9 181.2 1.6 247 10.8
2012-03-27 07:40:13 51°16.11 2°53.879 148.2 2 176 10.9
2012-03-27 07:41:13 51°16.09 2°53.909 88.3 1.5 93 10.6
2012-03-27 07:42:13 51°16.118 2°53.958 47.3 4.8 37 10.6
2012-03-27 07:43:13 51°16.207 2°54.091 52.5 8.5 49 10.5
2012-03-27 07:44:13 51°16.295 2°54.272 62.5 8.6 65 10.5
2012-03-27 07:45:13 51°16.291 2°54.39 109 2.2 135 10.6
2012-03-27 07:46:13 51°16.28 2°54.373 154.4 1.2 251 5.6
2012-03-27 07:47:16 51°16.273 2°54.34 170.6 1.3 253 -999
2012-03-27 07:48:16 51°16.264 2°54.31 178.2 1.3 251 -999
2012-03-27 07:49:16 51°16.255 2°54.279 183 1.3 245 10.7
2012-03-27 07:50:15 51°16.246 2°54.247 188.4 1.3 243 10.5
2012-03-27 07:51:13 51°16.237 2°54.214 194.8 1.4 245 10.6
2012-03-27 07:52:13 51°16.227 2°54.18 201.4 1.5 244 10.6
2012-03-27 07:53:13 51°16.198 2°54.118 231.2 4.6 239 10.7
2012-03-27 07:54:13 51°16.19 2°53.972 294.1 6.1 288 10.6
2012-03-27 07:55:13 51°16.264 2°53.821 322.3 8.9 312 10.8
2012-03-27 07:56:13 51°16.372 2°53.652 332.8 7.8 324 11.5
2012-03-27 07:57:13 51°16.459 2°53.591 356.8 5.7 344 11.3
2012-03-27 07:58:13 51°16.56 2°53.534 349.9 6.5 338 11.2
2012-03-27 07:59:13 51°16.636 2°53.501 14.6 3.4 358 11.2
2012-03-27 08:00:13 51°16.677 2°53.517 44.8 2.5 35 11.1
2012-03-27 08:01:13 51°16.712 2°53.592 63.3 4.1 61 11
2012-03-27 08:02:13 51°16.738 2°53.682 69.2 3.4 70 11.1
2012-03-27 08:03:13 51°16.754 2°53.762 73.6 3 73 10.9
2012-03-27 08:04:13 51°16.772 2°53.834 60.9 2.8 54 10.8
2012-03-27 08:05:13 51°16.805 2°53.891 54.1 3 49 10.8
2012-03-27 08:06:13 51°16.834 2°53.956 60.8 3.1 56 10.7
2012-03-27 08:07:13 51°16.87 2°54.02 51.4 3.3 45 10.8
2012-03-27 08:08:13 51°16.906 2°54.085 58.2 3.3 54 10.6
2012-03-27 08:09:13 51°16.933 2°54.16 66.2 3.2 66 10.5
2012-03-27 08:10:13 51°16.948 2°54.242 75.6 3.3 80 10.4
2012-03-27 08:11:13 51°16.953 2°54.327 79.4 3.2 84 10.5
2012-03-27 08:12:13 51°16.968 2°54.408 66.2 3.1 67 10.4
2012-03-27 08:13:13 51°16.998 2°54.476 52.1 3.2 49 10.3
2012-03-27 08:14:13 51°17.017 2°54.551 75.1 3.1 80 10.3
2012-03-27 08:15:13 51°17.017 2°54.633 86 3.2 97 10.3
2012-03-27 08:16:13 51°16.998 2°54.713 109 3.5 129 10.3
2012-03-27 08:17:13 51°16.942 2°54.761 148.1 4.2 171 10.3
2012-03-27 08:18:13 51°16.878 2°54.758 171.4 3.5 192 10.5
2012-03-27 08:19:13 51°16.828 2°54.729 185.8 3.1 206 10.6
2012-03-27 08:20:13 51°16.777 2°54.686 195.7 4.2 208 10.7
2012-03-27 08:21:13 51°16.689 2°54.59 218.2 8.7 223 10.7
2012-03-27 08:22:13 51°16.61 2°54.345 259 11.6 260 10.6
2012-03-27 08:23:13 51°16.641 2°54.02 288.8 13.1 285 10.7
2012-03-27 08:24:13 51°16.715 2°53.69 296.9 13.3 290 10.6
2012-03-27 08:25:13 51°16.781 2°53.352 296.2 13.3 290 10.3
2012-03-27 08:26:13 51°16.902 2°53.078 316.6 12.1 310 7.5
2012-03-27 08:27:13 51°17.032 2°52.823 315.5 12.6 310 8.6
2012-03-27 08:28:13 51°17.198 2°52.64 343.9 12 338 8.8
2012-03-27 08:29:13 51°17.382 2°52.512 344.1 12.1 336 9.3
2012-03-27 08:30:13 51°17.562 2°52.369 338.9 12.4 331 9.5
2012-03-27 08:31:13 51°17.738 2°52.211 338.8 12.2 332 10.2
2012-03-27 08:32:13 51°17.918 2°52.065 342.3 12 335 10.2
2012-03-27 08:33:13 51°18.107 2°51.963 352.3 11.9 344 9.7
2012-03-27 08:34:13 51°18.293 2°51.84 341.1 12.3 334 10.6
2012-03-27 08:35:13 51°18.478 2°51.703 347 12.2 340 11.4
2012-03-27 08:36:13 51°18.672 2°51.601 349.9 12.2 341 12.7
2012-03-27 08:37:13 51°18.857 2°51.455 340.5 12.5 331 13.4
2012-03-27 08:38:13 51°19.042 2°51.311 347.4 12.2 340 13.6
2012-03-27 08:39:13 51°19.235 2°51.204 349 12.3 340 14.2
2012-03-27 08:40:13 51°19.427 2°51.09 348.1 12.4 339 13.8
2012-03-27 08:41:13 51°19.62 2°50.977 350.7 12.2 343 12.4
2012-03-27 08:42:13 51°19.816 2°50.895 353.7 12.2 344 11.1
2012-03-27 08:43:13 51°20.011 2°50.79 346.6 12.5 338 12.3
2012-03-27 08:44:13 51°20.203 2°50.658 345.5 12.5 338 14.4
2012-03-27 08:45:13 51°20.399 2°50.546 352.7 12.5 344 16.1
2012-03-27 08:46:13 51°20.6 2°50.466 353.7 12.5 345 18.8
2012-03-27 08:47:13 51°20.799 2°50.37 348.5 12.6 338 21.4
2012-03-27 08:48:13 51°20.994 2°50.243 347.8 12.6 341 22.5
2012-03-27 08:49:13 51°21.197 2°50.17 357.2 12.4 349 22.6
2012-03-27 08:50:13 51°21.399 2°50.095 353.4 12.5 345 21.9
2012-03-27 08:51:13 51°21.595 2°49.993 348.2 12.4 340 21.3
2012-03-27 08:52:13 51°21.791 2°49.9 356.5 12.2 349 21.7
2012-03-27 08:53:13 51°21.991 2°49.837 356 12.3 348 22.4
2012-03-27 08:54:13 51°22.19 2°49.765 354.8 12.3 346 22.9
2012-03-27 08:55:13 51°22.387 2°49.665 350.7 12.4 344 22.6
2012-03-27 08:56:13 51°22.587 2°49.59 356.6 12.3 349 17.5
2012-03-27 08:57:13 51°22.785 2°49.502 350.1 12.4 342 13.7
2012-03-27 08:58:13 51°22.981 2°49.415 354.3 12 349 15.6
2012-03-27 08:59:13 51°23.181 2°49.386 2.8 12.1 355 16
2012-03-27 09:00:13 51°23.381 2°49.355 359.5 12.1 350 19.5
2012-03-27 09:01:13 51°23.579 2°49.279 354.1 12.3 347 21.5
2012-03-27 09:02:13 51°23.781 2°49.24 2.3 12.1 354 21.8
2012-03-27 09:03:13 51°23.977 2°49.19 354.6 12 344 21.7
2012-03-27 09:04:13 51°24.172 2°49.124 0.5 11.9 352 22.3
2012-03-27 09:05:13 51°24.366 2°49.043 350.7 12.2 342 20.8
2012-03-27 09:06:13 51°24.561 2°48.977 359.8 11.9 353 21.7
2012-03-27 09:07:13 51°24.757 2°48.909 354.3 12.2 344 21.1
2012-03-27 09:08:13 51°24.956 2°48.837 358.1 12.3 347 22.5
2012-03-27 09:09:13 51°25.152 2°48.734 350.8 12.5 341 25.4
2012-03-27 09:10:13 51°25.349 2°48.637 355.8 12.4 348 27.9
2012-03-27 09:11:13 51°25.55 2°48.572 355.1 12.3 344 23.6
2012-03-27 09:12:13 51°25.746 2°48.473 352.7 12.3 346 23.1
2012-03-27 09:13:13 51°25.905 2°48.427 6.9 6.5 354 22.8
2012-03-27 09:14:13 51°25.986 2°48.461 47 4.5 37 22.8
2012-03-27 09:15:13 51°26.045 2°48.538 45 4.7 35 22.9
2012-03-27 09:16:13 51°26.109 2°48.613 48 4.7 40 23.3
2012-03-27 09:17:13 51°26.146 2°48.705 82.9 3.2 91 23.2
2012-03-27 09:18:13 51°26.126 2°48.741 115.5 1 192 23.2
2012-03-27 09:19:13 51°26.112 2°48.721 126.7 1.2 220 23.5
2012-03-27 09:20:13 51°26.097 2°48.697 139.4 1.3 229 22.9
2012-03-27 09:21:13 51°26.081 2°48.669 145.6 1.5 226 23.6
2012-03-27 09:22:13 51°26.065 2°48.64 149.6 1.5 225 22.4
2012-03-27 09:23:13 51°26.047 2°48.609 151.8 1.6 230 23.5
2012-03-27 09:24:13 51°26.03 2°48.577 151 1.6 229 23.5
2012-03-27 09:25:13 51°26.012 2°48.544 148.6 1.7 229 22.9
2012-03-27 09:26:13 51°25.995 2°48.511 145.1 1.6 229 22.7
2012-03-27 09:27:13 51°25.978 2°48.479 141.1 1.6 232 23.1
2012-03-27 09:28:13 51°25.962 2°48.445 137.4 1.6 235 22.9
2012-03-27 09:29:13 51°25.947 2°48.411 133.9 1.6 235 23.1
2012-03-27 09:30:13 51°25.928 2°48.386 117.8 1.3 179 22.9
2012-03-27 09:31:13 51°25.928 2°48.408 50.2 1.6 28 23.2
2012-03-27 09:32:13 51°25.996 2°48.435 27.9 6.5 18 23
2012-03-27 09:33:13 51°26.108 2°48.55 48 9.1 48 23.1
2012-03-27 09:34:13 51°26.15 2°48.697 66.7 4.3 75 23.3
2012-03-27 09:35:13 51°26.13 2°48.756 124.9 1.5 182 23.3
2012-03-27 09:36:13 51°26.118 2°48.726 152.6 1.4 238 23.4
2012-03-27 09:37:16 51°26.103 2°48.693 158.3 1.5 233 -999
2012-03-27 09:38:15 51°26.088 2°48.66 160.5 1.5 231 23.4
2012-03-27 09:39:13 51°26.072 2°48.625 162.5 1.7 233 23.4
2012-03-27 09:40:13 51°26.057 2°48.588 167.1 1.7 237 23.2
2012-03-27 09:41:13 51°26.04 2°48.551 170.7 1.7 235 22.9
2012-03-27 09:42:13 51°26.022 2°48.513 175 1.8 235 22.8
2012-03-27 09:43:13 51°25.985 2°48.479 170.7 3.9 191 23.3
2012-03-27 09:44:13 51°25.928 2°48.511 110.7 3.2 128 22.9
2012-03-27 09:45:13 51°25.937 2°48.585 57.3 3.8 49 23.4
2012-03-27 09:46:13 51°26.04 2°48.622 12 8.1 -999 23.6
2012-03-27 09:47:13 51°26.133 2°48.646 36.5 3.4 25 22.8
2012-03-27 09:48:13 51°26.167 2°48.69 53.7 2.4 48 21.6
2012-03-27 09:49:13 51°26.193 2°48.737 50.2 2.6 43 23.4
2012-03-27 09:50:13 51°26.236 2°48.787 38.7 3.6 28 23.2
2012-03-27 09:51:13 51°26.29 2°48.838 42.7 3.8 35 22.4
2012-03-27 09:52:13 51°26.333 2°48.883 39.8 2.8 27 22.5
2012-03-27 09:53:13 51°26.374 2°48.91 34.7 2.6 18 20.7
2012-03-27 09:54:13 51°26.421 2°48.93 27.5 3.2 11 21.3
2012-03-27 09:55:13 51°26.475 2°48.937 20.4 3.5 3 21.2
2012-03-27 09:56:13 51°26.535 2°48.936 15.4 3.5 359 18.1
2012-03-27 09:57:13 51°26.594 2°48.925 6.9 3.5 347 21
2012-03-27 09:58:13 51°26.652 2°48.888 353.8 4 331 21.6
2012-03-27 09:59:13 51°26.709 2°48.821 339.8 4.5 317 22.2
2012-03-27 10:00:13 51°26.758 2°48.726 325.8 4.7 303 22.2
2012-03-27 10:01:13 51°26.792 2°48.618 313.4 4.6 291 22.6
2012-03-27 10:02:13 51°26.812 2°48.501 302.7 4.6 283 22.8
2012-03-27 10:03:13 51°26.836 2°48.39 316.9 4.2 294 22.4
2012-03-27 10:04:13 51°26.866 2°48.292 323.1 4 298 23.1
2012-03-27 10:05:13 51°26.898 2°48.201 327.6 3.9 301 24
2012-03-27 10:06:13 51°26.931 2°48.112 329.3 3.8 301 24.9
2012-03-27 10:07:13 51°26.967 2°48.029 338 3.6 308 24.9
2012-03-27 10:08:13 51°27.005 2°47.965 355.3 3 324 24.6
2012-03-27 10:09:13 51°27.041 2°47.94 21.1 1.7 341 24.9
2012-03-27 10:10:13 51°27.057 2°47.926 30.3 0.8 317 24.9
2012-03-27 10:11:13 51°27.062 2°47.907 32.7 0.7 278 25.8
2012-03-27 10:12:13 51°27.061 2°47.889 38.1 0.5 274 26.7
2012-03-27 10:13:13 51°27.055 2°47.908 94.1 2.1 134 26.2
2012-03-27 10:14:13 51°26.999 2°47.93 162.7 4.9 186 26.3
2012-03-27 10:15:13 51°26.882 2°47.864 198.5 9.2 204 24.6
2012-03-27 10:16:13 51°26.724 2°47.763 194.8 10.8 200 24.7
2012-03-27 10:17:13 51°26.541 2°47.652 201.8 12.4 207 22.9
2012-03-27 10:18:13 51°26.362 2°47.467 212.9 12.9 216 20.5
2012-03-27 10:19:13 51°26.182 2°47.273 210.2 13 212 24.2
2012-03-27 10:20:13 51°25.998 2°47.094 209.9 13 212 22.1
2012-03-27 10:21:13 51°25.816 2°46.907 209.7 13 211 23.4
2012-03-27 10:22:13 51°25.629 2°46.74 205 12.8 208 23.1
2012-03-27 10:23:13 51°25.443 2°46.568 206.4 12.8 209 24.2
2012-03-27 10:24:13 51°25.261 2°46.386 210.9 12.9 214 24.9
2012-03-27 10:25:13 51°25.083 2°46.195 209.8 12.9 213 25
2012-03-27 10:26:13 51°24.902 2°46.009 208.9 13 212 24.1
2012-03-27 10:27:13 51°24.717 2°45.834 206.8 12.9 211 24.4
2012-03-27 10:28:13 51°24.537 2°45.642 211.6 13.1 216 25.7
2012-03-27 10:29:13 51°24.354 2°45.459 206.1 12.9 211 26.4
2012-03-27 10:30:13 51°24.173 2°45.268 211 13 215 26.3
2012-03-27 10:31:13 51°23.987 2°45.088 205.5 13.1 210 25.2
2012-03-27 10:32:13 51°23.801 2°44.908 207 13.1 210 26.8
2012-03-27 10:33:13 51°23.612 2°44.737 206.9 13 211 26.9
2012-03-27 10:34:13 51°23.431 2°44.546 209.7 13 212 27.4
2012-03-27 10:35:13 51°23.245 2°44.37 208.4 13 213 25.2
2012-03-27 10:36:13 51°23.066 2°44.171 211.3 13.1 215 26.2
2012-03-27 10:37:13 51°22.878 2°43.995 204.6 13.1 209 26.6
2012-03-27 10:38:13 51°22.694 2°43.804 212 13.2 215 25.5
2012-03-27 10:39:13 51°22.512 2°43.608 209.8 13.2 213 23.7
2012-03-27 10:40:13 51°22.323 2°43.431 205.2 13.2 210 22.4
2012-03-27 10:41:13 51°22.134 2°43.254 204 13 207 25.1
2012-03-27 10:42:13 51°21.936 2°43.123 195.7 12.9 201 23
2012-03-27 10:43:13 51°21.736 2°42.994 199.5 12.9 204 22.2
2012-03-27 10:44:13 51°21.543 2°42.838 204.3 13 207 21.5
2012-03-27 10:45:13 51°21.349 2°42.697 197.8 12.7 201 20.2
2012-03-27 10:46:13 51°21.152 2°42.572 200.9 12.8 204 22.6
2012-03-27 10:47:13 51°20.956 2°42.44 198.4 12.9 204 18.2
2012-03-27 10:48:13 51°20.762 2°42.3 198.2 12.8 202 15.9
2012-03-27 10:49:13 51°20.561 2°42.198 188.4 12.5 195 16.5
2012-03-27 10:50:13 51°20.364 2°42.098 193 12.6 201 17.9
2012-03-27 10:51:13 51°20.168 2°41.987 189.3 12.4 196 15.8
2012-03-27 10:52:13 51°19.969 2°41.922 181 12.2 190 21.5
2012-03-27 10:53:13 51°19.768 2°41.862 182.8 12.3 191 20.7
2012-03-27 10:54:13 51°19.568 2°41.775 188.5 12.4 195 21
2012-03-27 10:55:13 51°19.367 2°41.71 181.8 12.3 190 20.8
2012-03-27 10:56:13 51°19.166 2°41.633 188.2 12.5 197 18.7
2012-03-27 10:57:13 51°18.963 2°41.552 184.6 12.5 191 18.9
2012-03-27 10:58:13 51°18.759 2°41.498 182.9 12.6 192 17.6
2012-03-27 10:59:13 51°18.556 2°41.411 189.1 12.7 196 19.2
2012-03-27 11:00:13 51°18.351 2°41.338 182.3 12.6 189 17
2012-03-27 11:01:13 51°18.146 2°41.28 185.1 12.6 193 21.2
2012-03-27 11:02:13 51°17.941 2°41.197 187.7 12.7 194 21.3
2012-03-27 11:03:13 51°17.736 2°41.136 182.3 12.6 190 22.2
2012-03-27 11:04:13 51°17.53 2°41.066 188.1 12.7 195 22.3
2012-03-27 11:05:13 51°17.326 2°40.983 185.2 12.6 191 23.1
2012-03-27 11:06:13 51°17.12 2°40.928 183.7 12.6 192 23.1
2012-03-27 11:07:13 51°16.915 2°40.849 189 12.7 195 23
2012-03-27 11:08:13 51°16.708 2°40.779 183.5 12.6 189 22.7
2012-03-27 11:09:13 51°16.5 2°40.727 183.7 12.8 190 21.7
2012-03-27 11:10:13 51°16.294 2°40.648 193.3 12.7 198 20.1
2012-03-27 11:11:13 51°16.09 2°40.554 188.1 12.7 192 19.4
2012-03-27 11:12:13 51°15.887 2°40.464 194.2 12.7 198 18.2
2012-03-27 11:13:13 51°15.68 2°40.389 185.9 12.6 190 16.6
2012-03-27 11:14:13 51°15.474 2°40.328 186.8 12.7 192 15.1
2012-03-27 11:15:13 51°15.276 2°40.218 200.9 12.7 203 14.4
2012-03-27 11:16:13 51°15.079 2°40.108 196 12.5 199 13
2012-03-27 11:17:13 51°14.886 2°39.984 200 12.4 202 14
2012-03-27 11:18:13 51°14.692 2°39.874 193.8 12.3 196 13.6
2012-03-27 11:19:13 51°14.496 2°39.781 196.7 12.2 198 12.9
2012-03-27 11:20:13 51°14.304 2°39.674 194.6 12.2 196 12.9
2012-03-27 11:21:13 51°14.108 2°39.58 196.3 12.2 199 13.4
2012-03-27 11:22:13 51°13.912 2°39.49 195.3 12.2 199 12.5
2012-03-27 11:23:13 51°13.726 2°39.355 205.7 12.4 207 14
2012-03-27 11:24:13 51°13.542 2°39.212 204.2 12.3 205 14.5
2012-03-27 11:25:13 51°13.355 2°39.082 203.1 12.3 205 14.3
2012-03-27 11:26:13 51°13.176 2°38.922 210.3 12.3 213 13.6
2012-03-27 11:27:13 51°13.016 2°38.713 220.1 12.5 220 12.9
2012-03-27 11:28:13 51°12.853 2°38.51 215.5 12.5 216 13.4
2012-03-27 11:29:13 51°12.681 2°38.325 215.7 12.5 217 13.2
2012-03-27 11:30:13 51°12.518 2°38.12 216.4 12.4 217 13
2012-03-27 11:31:13 51°12.344 2°37.937 213.6 12.5 215 13
2012-03-27 11:32:13 51°12.179 2°37.74 212.9 12.4 213 13
2012-03-27 11:33:13 51°12.008 2°37.554 212.8 12.5 213 13.1
2012-03-27 11:34:13 51°11.831 2°37.374 212.8 12.7 213 13.1
2012-03-27 11:35:13 51°11.657 2°37.187 214.3 12.6 216 13.1
2012-03-27 11:36:13 51°11.495 2°36.975 223.7 12.5 223 12.8
2012-03-27 11:37:13 51°11.345 2°36.746 225.3 12.5 225 12.4
2012-03-27 11:38:13 51°11.193 2°36.519 222.6 12.5 222 12.1
2012-03-27 11:39:13 51°11.036 2°36.301 217.5 12.5 214 11.6
2012-03-27 11:40:13 51°10.849 2°36.159 199.7 12.4 200 11.5
2012-03-27 11:41:13 51°10.654 2°36.057 196.2 12.5 198 11
2012-03-27 11:42:13 51°10.459 2°35.948 198.7 12.3 199 11.1
2012-03-27 11:43:13 51°10.261 2°35.879 184.2 12.1 184 10.9
2012-03-27 11:44:13 51°10.071 2°35.945 151.9 11.5 154 16.6
2012-03-27 11:45:13 51°9.926 2°36.116 131.9 10.8 136 18.3
2012-03-27 11:46:13 51°9.798 2°36.314 132.1 10.8 137 18
2012-03-27 11:47:13 51°9.662 2°36.504 131.4 10.8 137 17.1
2012-03-27 11:48:13 51°9.543 2°36.714 124.7 10.7 130 15.9
2012-03-27 11:49:13 51°9.426 2°36.927 127.9 10.7 134 15.6
2012-03-27 11:50:13 51°9.299 2°37.115 129.5 8.8 136 12.7
2012-03-27 11:51:13 51°9.232 2°37.233 117.6 4.3 127 11.4
2012-03-27 11:52:13 51°9.212 2°37.265 111.1 0.7 195 11.1
2012-03-27 11:53:13 51°9.2 2°37.253 127.8 0.9 212 11.1
2012-03-27 11:54:13 51°9.186 2°37.239 136.5 1 215 10.9
2012-03-27 11:55:13 51°9.173 2°37.225 135.1 1 215 10.9
2012-03-27 11:56:13 51°9.159 2°37.21 128.1 1 214 10.8
2012-03-27 11:57:13 51°9.147 2°37.194 121.4 0.9 225 10.7
2012-03-27 11:58:13 51°9.134 2°37.178 118.9 1 220 10.6
2012-03-27 11:59:13 51°9.121 2°37.162 117.8 1 218 10.5
2012-03-27 12:00:13 51°9.109 2°37.146 117.4 1 217 10.5
2012-03-27 12:01:13 51°9.096 2°37.13 119.2 1 221 10.4
2012-03-27 12:02:13 51°9.083 2°37.114 120.7 1 221 10.4
2012-03-27 12:03:13 51°9.071 2°37.097 123 1 216 10.3
2012-03-27 12:04:13 51°9.058 2°37.08 126.2 1 222 10.3
2012-03-27 12:05:13 51°9.046 2°37.063 128 1 224 10.2
2012-03-27 12:06:13 51°9.03 2°37.051 135.2 1.7 172 10.1
2012-03-27 12:07:13 51°8.973 2°37.034 207.5 4.8 217 9.6
2012-03-27 12:08:13 51°8.961 2°36.91 298.2 5.1 296 9.7
2012-03-27 12:09:13 51°9.036 2°36.827 348.2 6 342 10.5
2012-03-27 12:10:13 51°9.137 2°36.809 13.8 6 9 12.1
2012-03-27 12:11:13 51°9.187 2°36.893 72.7 4 80 12.5
2012-03-27 12:12:13 51°9.181 2°37.002 83.4 4.1 89 12
2012-03-27 12:13:13 51°9.191 2°37.109 73.4 4.1 78 11.8
2012-03-27 12:14:13 51°9.194 2°37.197 89.5 2.2 107 11.6
2012-03-27 12:15:13 51°9.181 2°37.204 127.6 1.1 194 11.4
2012-03-27 12:16:13 51°9.165 2°37.192 154.1 1.1 205 11.3
2012-03-27 12:17:13 51°9.147 2°37.176 165.2 1.2 216 11.1
2012-03-27 12:18:13 51°9.128 2°37.161 163.3 1.3 202 11
2012-03-27 12:19:13 51°9.11 2°37.145 158.4 1.1 211 10.9
2012-03-27 12:20:13 51°9.093 2°37.132 152.8 1.1 218 10.8
2012-03-27 12:21:13 51°9.077 2°37.123 146.1 1.1 188 10.7
2012-03-27 12:22:13 51°9.064 2°37.114 132.9 0.7 204 10.7
2012-03-27 12:23:13 51°9.053 2°37.109 120.8 0.6 204 10.5
2012-03-27 12:24:13 51°9.043 2°37.104 113.3 0.7 196 10.5
2012-03-27 12:25:13 51°9.033 2°37.098 111.8 0.6 206 10.5
2012-03-27 12:26:13 51°9.023 2°37.092 113.1 0.6 200 10.4
2012-03-27 12:27:13 51°9.027 2°37.142 54.6 3.4 51 10.4
2012-03-27 12:28:13 51°9.076 2°37.143 333.9 3.1 316 10.9
2012-03-27 12:29:13 51°9.085 2°37.052 267.7 3.7 255 11.1
2012-03-27 12:30:13 51°9.059 2°36.95 255 4.3 252 11.1
2012-03-27 12:31:13 51°9.045 2°36.844 269.5 3.9 263 11.2
2012-03-27 12:32:13 51°9.04 2°36.748 273.9 3.5 265 11.4
2012-03-27 12:33:13 51°9.033 2°36.659 270.1 3.3 261 11.7
2012-03-27 12:34:13 51°9.024 2°36.575 268 3.1 259 11.9
2012-03-27 12:35:13 51°9.014 2°36.493 266 3.2 258 12.1
2012-03-27 12:36:13 51°9 2°36.408 256.6 3.4 250 12.4
2012-03-27 12:37:13 51°8.978 2°36.323 253.5 3.5 248 12.4
2012-03-27 12:38:13 51°8.957 2°36.236 255.2 3.5 249 12.4
2012-03-27 12:39:13 51°8.937 2°36.148 256.2 3.5 250 12.6
2012-03-27 12:40:13 51°8.918 2°36.06 258.3 3.5 252 12.8
2012-03-27 12:41:13 51°8.903 2°35.971 262.4 3.6 255 13.1
2012-03-27 12:42:13 51°8.891 2°35.883 262.7 3.4 258 13.6
2012-03-27 12:43:13 51°8.882 2°35.793 271.7 3.4 265 14.1
2012-03-27 12:44:13 51°8.884 2°35.708 282.3 3.2 275 15.1
2012-03-27 12:45:13 51°8.894 2°35.627 289.4 3 285 15.9
2012-03-27 12:46:13 51°8.909 2°35.551 296 3 291 16.6
2012-03-27 12:47:13 51°8.932 2°35.482 310.3 2.9 303 17.4
2012-03-27 12:48:13 51°8.953 2°35.432 315.7 1.9 300 17.7
2012-03-27 12:49:13 51°8.963 2°35.393 310.1 1.4 286 18
2012-03-27 12:50:13 51°8.966 2°35.36 309.1 1.1 274 18.1
2012-03-27 12:51:13 51°8.996 2°35.306 334.3 4.6 330 18.1
2012-03-27 12:52:13 51°9.092 2°35.326 34.9 6.9 37 18.1
2012-03-27 12:53:13 51°9.165 2°35.511 63 9.7 63 18.2
2012-03-27 12:54:13 51°9.239 2°35.78 72.4 11.7 71 18
2012-03-27 12:55:13 51°9.303 2°36.076 73 11.9 70 17.9
2012-03-27 12:56:13 51°9.386 2°36.362 67 12 65 17.6
2012-03-27 12:57:13 51°9.47 2°36.65 66.8 11.9 65 17.4
2012-03-27 12:58:13 51°9.55 2°36.941 70 12.1 68 17.6
2012-03-27 12:59:13 51°9.616 2°37.244 73 12 72 17.6
2012-03-27 13:00:13 51°9.683 2°37.55 71.4 12.3 68 17.5
2012-03-27 13:01:13 51°9.763 2°37.846 69.3 12.2 67 17.1
2012-03-27 13:02:13 51°9.843 2°38.142 72.1 12.2 71 16.8
2012-03-27 13:03:13 51°9.906 2°38.445 71.1 12.2 69 16.5
2012-03-27 13:04:13 51°9.987 2°38.741 69 12.3 69 16.2
2012-03-27 13:05:13 51°10.048 2°39.048 73.4 12.2 72 15.7
2012-03-27 13:06:13 51°10.126 2°39.344 69.8 12.1 69 15.5
2012-03-27 13:07:13 51°10.197 2°39.646 67.5 12.2 66 15.2
2012-03-27 13:08:13 51°10.274 2°39.943 73.8 12.2 73 14.9
2012-03-27 13:09:13 51°10.333 2°40.251 73.3 12.1 72 14.5
2012-03-27 13:10:13 51°10.413 2°40.548 65.6 12.3 64 14.5
2012-03-27 13:11:13 51°10.487 2°40.846 73.8 12.1 74 14.5
2012-03-27 13:12:13 51°10.551 2°41.15 68.9 12.1 68 14.3
2012-03-27 13:13:13 51°10.631 2°41.446 69.8 12.1 69 14.3
2012-03-27 13:14:13 51°10.689 2°41.754 78.5 12.2 78 14.4
2012-03-27 13:15:13 51°10.746 2°42.063 74 12.2 73 14.2
2012-03-27 13:16:13 51°10.823 2°42.362 67.4 12.2 66 14.4
2012-03-27 13:17:13 51°10.904 2°42.656 70.6 12.2 71 14.6
2012-03-27 13:18:13 51°10.951 2°42.974 77.7 12.4 75 14.5
2012-03-27 13:19:13 51°11.008 2°43.286 73.7 12.3 71 14.4
2012-03-27 13:20:13 51°11.086 2°43.586 68.4 12.3 67 14.3
2012-03-27 13:21:13 51°11.161 2°43.89 70.5 12.4 70 14.6
2012-03-27 13:22:13 51°11.223 2°44.202 72.6 12.4 71 14.5
2012-03-27 13:23:13 51°11.303 2°44.505 67.5 12.4 66 14.7
2012-03-27 13:24:13 51°11.39 2°44.801 66.9 12.4 65 14.7
2012-03-27 13:25:13 51°11.467 2°45.106 71.7 12.6 71 14.9
2012-03-27 13:26:13 51°11.532 2°45.422 71.4 12.6 69 14.9
2012-03-27 13:27:13 51°11.612 2°45.729 66.8 12.5 66 14.9
2012-03-27 13:28:13 51°11.685 2°46.041 73.1 12.5 72 15
2012-03-27 13:29:13 51°11.769 2°46.346 67.4 12.6 65 15.1
2012-03-27 13:30:13 51°11.859 2°46.645 65.9 12.4 66 15.1
2012-03-27 13:31:13 51°11.936 2°46.955 73.8 12.6 71 15.1
2012-03-27 13:32:13 51°12.005 2°47.271 72.7 12.7 71 14.9
2012-03-27 13:33:13 51°12.082 2°47.583 66.7 12.7 64 14.7
2012-03-27 13:34:13 51°12.182 2°47.878 63.7 12.7 64 14.6
2012-03-27 13:35:13 51°12.265 2°48.188 69.5 12.7 68 14.5
2012-03-27 13:36:13 51°12.367 2°48.482 59.8 12.7 59 14.3
2012-03-27 13:37:13 51°12.477 2°48.77 59.2 12.8 57 14.3
2012-03-27 13:38:13 51°12.576 2°49.07 64.3 12.8 62 14.2
2012-03-27 13:39:13 51°12.68 2°49.366 65.4 12.9 65 14.3
2012-03-27 13:40:13 51°12.771 2°49.675 65.9 12.9 63 14.1
2012-03-27 13:41:13 51°12.872 2°49.977 62.1 12.9 60 13.8
2012-03-27 13:42:13 51°12.981 2°50.273 62.5 12.9 62 13.7
2012-03-27 13:43:13 51°13.077 2°50.581 65.9 12.9 64 13.5
2012-03-27 13:44:13 51°13.186 2°50.877 59.6 12.9 57 13.5
2012-03-27 13:45:13 51°13.306 2°51.165 59.3 13 57 13.3
2012-03-27 13:46:13 51°13.409 2°51.467 67.4 13 66 13.2
2012-03-27 13:47:13 51°13.513 2°51.771 61.4 13.1 58 13.2
2012-03-27 13:48:13 51°13.636 2°52.059 56.9 13.2 55 13.2
2012-03-27 13:49:13 51°13.746 2°52.36 65.4 13.2 64 12.8
2012-03-27 13:50:13 51°13.857 2°52.661 58.3 13.1 56 12.7
2012-03-27 13:51:13 51°13.984 2°52.946 56.7 13.1 55 12.6
2012-03-27 13:52:13 51°14.101 2°53.239 61.8 13.1 60 12.5
2012-03-27 13:53:13 51°14.216 2°53.536 58.3 13.2 57 12.3
2012-03-27 13:54:13 51°14.339 2°53.825 58.3 13.2 55 12.4
2012-03-27 13:55:13 51°14.462 2°54.116 58.9 13.3 57 12.4
2012-03-27 13:56:13 51°14.571 2°54.422 66.1 13.4 63 13
2012-03-27 13:57:13 51°14.625 2°54.758 95.2 12.8 96 13.8
2012-03-27 13:58:13 51°14.528 2°55.039 143.3 12.1 135 13.7
2012-03-27 13:59:13 51°14.364 2°55.204 149.8 11.4 148 12.8
2012-03-27 14:00:16 51°14.196 2°55.351 151.2 10.1 150 -999
2012-03-27 14:01:16 51°14.058 2°55.457 156 8.1 156 -999
2012-03-27 14:02:16 51°13.948 2°55.536 156.5 6.4 156 13
2012-03-27 14:03:16 51°13.855 2°55.603 156.1 5.8 155 -999
2012-03-27 14:04:16 51°13.774 2°55.677 144.3 5.4 141 -999
2012-03-27 14:05:16 51°13.715 2°55.779 129.7 5.3 129 13.7
2012-03-27 14:06:16 51°13.667 2°55.885 124.2 4.3 123 -999
2012-03-27 14:07:16 51°13.642 2°55.974 106.2 3.3 104 12.6
2012-03-27 14:08:16 51°13.636 2°56.015 109.4 0.5 109 -999